createdAt,value
2022-08-24T00:00:12.480Z,2.55
2022-08-24T00:02:39.789Z,2.70
2022-08-24T00:05:11.534Z,2.70
2022-08-24T00:07:41.734Z,2.33
2022-08-24T00:10:09.712Z,2.72
2022-08-24T00:12:37.040Z,2.53
2022-08-24T00:15:05.796Z,2.78
2022-08-24T00:17:34.276Z,2.88
2022-08-24T00:20:02.651Z,3.25
2022-08-24T00:22:29.931Z,2.90
2022-08-24T00:24:57.091Z,2.65
2022-08-24T00:27:24.664Z,3.10
2022-08-24T00:29:51.829Z,3.10
2022-08-24T00:32:19.112Z,2.85
2022-08-24T00:34:58.399Z,3.08
2022-08-24T00:37:28.585Z,2.67
2022-08-24T00:39:56.141Z,2.95
2022-08-24T00:42:24.017Z,3.00
2022-08-24T00:44:52.119Z,2.83
2022-08-24T00:47:22.147Z,3.00
2022-08-24T00:49:55.657Z,2.90
2022-08-24T00:52:29.513Z,3.20
2022-08-24T00:54:58.758Z,2.95
2022-08-24T00:57:28.459Z,3.13
2022-08-24T00:59:57.612Z,2.40
2022-08-24T01:02:26.858Z,2.95
2022-08-24T01:04:57.193Z,3.13
2022-08-24T01:07:25.616Z,2.70
2022-08-24T01:09:54.813Z,3.10
2022-08-24T01:12:22.410Z,2.85
2022-08-24T01:14:49.805Z,3.05
2022-08-24T01:17:38.680Z,3.38
2022-08-24T01:20:08.039Z,2.70
2022-08-24T01:22:38.031Z,2.83
2022-08-24T01:25:06.081Z,2.78
2022-08-24T01:27:34.572Z,2.95
2022-08-24T01:30:02.868Z,2.97
2022-08-24T01:32:31.019Z,3.13
2022-08-24T01:34:58.739Z,2.60
2022-08-24T01:37:25.949Z,2.80
2022-08-24T01:39:54.815Z,2.80
2022-08-24T01:42:22.117Z,3.38
2022-08-24T01:44:49.360Z,2.90
2022-08-24T01:47:17.131Z,3.00
2022-08-24T01:49:46.118Z,3.33
2022-08-24T01:52:21.569Z,3.05
2022-08-24T01:57:17.076Z,2.92
2022-08-24T01:59:44.801Z,3.63
2022-08-24T02:02:19.890Z,2.95
2022-08-24T02:04:47.111Z,3.20
2022-08-24T02:07:14.320Z,3.25
2022-08-24T02:09:41.543Z,3.60
2022-08-24T02:12:08.879Z,3.08
2022-08-24T02:14:36.551Z,3.72
2022-08-24T02:17:05.343Z,3.00
2022-08-24T02:19:32.528Z,3.47
2022-08-24T02:22:00.491Z,4.07
2022-08-24T02:24:30.787Z,3.33
2022-08-24T02:26:58.131Z,3.10
2022-08-24T02:29:26.452Z,3.63
2022-08-24T02:31:53.657Z,3.28
2022-08-24T02:34:21.526Z,3.47
2022-08-24T02:36:48.676Z,3.40
2022-08-24T02:39:16.076Z,3.53
2022-08-24T02:41:43.250Z,3.80
2022-08-24T02:44:10.429Z,4.18
2022-08-24T02:46:37.692Z,4.22
2022-08-24T02:49:11.734Z,4.65
2022-08-24T02:51:44.835Z,4.10
2022-08-24T02:54:12.874Z,4.05
2022-08-24T02:56:40.204Z,4.63
2022-08-24T02:59:07.470Z,6.65
2022-08-24T03:01:34.708Z,7.13
2022-08-24T03:04:01.961Z,6.53
2022-08-24T03:06:29.216Z,6.47
2022-08-24T03:08:57.155Z,6.75
2022-08-24T03:11:27.964Z,6.95
2022-08-24T03:13:55.894Z,8.13
2022-08-24T03:16:23.222Z,7.03
2022-08-24T03:18:50.452Z,7.53
2022-08-24T03:21:18.287Z,8.27
2022-08-24T03:23:45.491Z,7.70
2022-08-24T03:26:12.956Z,8.70
2022-08-24T03:28:40.463Z,8.05
2022-08-24T03:31:07.886Z,8.40
2022-08-24T03:33:35.741Z,8.02
2022-08-24T03:36:02.929Z,8.98
2022-08-24T03:38:30.157Z,9.38
2022-08-24T03:40:57.592Z,9.40
2022-08-24T03:43:43.456Z,9.68
2022-08-24T03:46:12.452Z,10.35
2022-08-24T03:48:40.621Z,8.82
2022-08-24T03:51:16.051Z,9.85
2022-08-24T03:53:43.667Z,11.95
2022-08-24T03:56:11.518Z,12.30
2022-08-24T03:58:39.456Z,13.48
2022-08-24T04:01:06.924Z,14.63
2022-08-24T04:03:41.579Z,16.17
2022-08-24T04:06:09.216Z,16.43
2022-08-24T04:08:39.316Z,16.45
2022-08-24T04:11:06.869Z,17.75
2022-08-24T04:13:34.029Z,17.30
2022-08-24T04:16:28.315Z,18.40
2022-08-24T04:18:56.892Z,16.15
2022-08-24T04:21:28.641Z,16.10
2022-08-24T04:23:56.375Z,16.55
2022-08-24T04:26:36.421Z,15.30
2022-08-24T04:29:13.092Z,16.38
2022-08-24T04:31:41.231Z,16.40
2022-08-24T04:34:08.811Z,15.85
2022-08-24T04:36:35.852Z,16.17
2022-08-24T04:39:04.470Z,16.17
2022-08-24T04:41:31.889Z,15.50
2022-08-24T04:43:59.514Z,15.25
2022-08-24T04:46:27.581Z,14.77
2022-08-24T04:48:54.769Z,14.60
2022-08-24T04:51:22.132Z,15.13
2022-08-24T04:53:50.307Z,14.52
2022-08-24T04:56:20.800Z,15.25
2022-08-24T04:58:47.951Z,14.55
2022-08-24T05:01:19.507Z,15.27
2022-08-24T05:03:50.276Z,15.13
2022-08-24T05:06:19.356Z,14.73
2022-08-24T05:08:47.494Z,15.82
2022-08-24T05:11:17.424Z,14.93
2022-08-24T05:13:44.630Z,16.30
2022-08-24T05:16:14.279Z,14.80
2022-08-24T05:18:41.648Z,13.43
2022-08-24T05:21:10.768Z,12.73
2022-08-24T05:23:40.062Z,12.80
2022-08-24T05:26:16.484Z,12.05
2022-08-24T05:28:43.721Z,11.80
2022-08-24T05:31:23.362Z,12.00
2022-08-24T05:33:50.733Z,11.07
2022-08-24T05:36:23.545Z,10.07
2022-08-24T05:38:53.101Z,10.15
2022-08-24T05:41:20.748Z,8.95
2022-08-24T05:43:47.585Z,9.52
2022-08-24T05:46:15.149Z,9.07
2022-08-24T05:48:43.187Z,9.52
2022-08-24T05:51:19.324Z,8.55
2022-08-24T05:53:46.130Z,9.18
2022-08-24T05:56:15.689Z,8.35
2022-08-24T05:58:42.957Z,7.65
2022-08-24T06:01:13.253Z,8.68
2022-08-24T06:03:40.696Z,9.27
2022-08-24T06:06:09.028Z,8.45
2022-08-24T06:08:41.211Z,7.80
2022-08-24T06:11:09.758Z,7.65
2022-08-24T06:13:37.055Z,8.20
2022-08-24T06:16:27.940Z,7.70
2022-08-24T06:18:55.372Z,7.18
2022-08-24T06:21:25.675Z,6.38
2022-08-24T06:23:56.066Z,5.90
2022-08-24T06:26:41.934Z,4.88
2022-08-24T06:31:40.851Z,4.38
2022-08-24T06:34:10.558Z,3.92
2022-08-24T06:36:37.473Z,4.15
2022-08-24T06:39:09.912Z,5.00
2022-08-24T06:41:38.811Z,3.95
2022-08-24T06:44:06.725Z,4.68
2022-08-24T06:46:33.673Z,4.78
2022-08-24T06:49:00.932Z,5.22
2022-08-24T06:51:27.845Z,5.05
2022-08-24T06:53:58.751Z,4.65
2022-08-24T06:56:25.649Z,4.45
2022-08-24T06:58:52.676Z,5.78
2022-08-24T07:01:23.858Z,6.25
2022-08-24T07:03:51.294Z,6.25
2022-08-24T07:06:19.014Z,7.32
2022-08-24T07:08:46.139Z,7.95
2022-08-24T07:11:15.618Z,9.80
2022-08-24T07:13:42.797Z,11.15
2022-08-24T07:16:10.228Z,11.80
2022-08-24T07:18:37.587Z,11.18
2022-08-24T07:21:08.188Z,11.20
2022-08-24T07:23:41.871Z,10.88
2022-08-24T07:26:21.500Z,11.05
2022-08-24T07:28:50.676Z,11.43
2022-08-24T07:31:17.676Z,11.25
2022-08-24T07:33:45.313Z,13.32
2022-08-24T07:36:16.924Z,12.48
2022-08-24T07:38:52.411Z,13.30
2022-08-24T07:41:47.082Z,14.70
2022-08-24T07:44:08.999Z,13.10
2022-08-24T07:46:36.870Z,14.15
2022-08-24T07:49:12.417Z,15.27
2022-08-24T07:51:46.932Z,15.77
2022-08-24T07:54:14.959Z,14.48
2022-08-24T07:56:42.797Z,16.25
2022-08-24T07:59:13.101Z,12.05
2022-08-24T08:01:41.073Z,11.45
2022-08-24T08:04:08.281Z,12.25
2022-08-24T08:06:35.504Z,11.55
2022-08-24T08:09:04.923Z,10.95
2022-08-24T08:11:32.138Z,12.25
2022-08-24T08:13:59.052Z,12.18
2022-08-24T08:16:26.401Z,12.70
2022-08-24T08:19:09.323Z,9.68
2022-08-24T08:22:06.628Z,10.88
2022-08-24T08:24:33.502Z,11.93
2022-08-24T08:27:00.290Z,10.52
2022-08-24T08:29:27.583Z,10.52
2022-08-24T08:31:54.683Z,11.30
2022-08-24T08:34:21.745Z,10.75
2022-08-24T08:36:48.962Z,11.52
2022-08-24T08:39:18.098Z,8.80
2022-08-24T08:41:53.697Z,10.68
2022-08-24T08:44:52.562Z,9.60
2022-08-24T08:50:50.441Z,7.45
2022-08-24T08:53:47.456Z,8.15
2022-08-24T08:56:23.852Z,7.78
2022-08-24T08:58:57.562Z,6.80
2022-08-24T09:02:03.624Z,7.28
2022-08-24T09:04:30.570Z,6.10
2022-08-24T09:07:37.392Z,7.03
2022-08-24T09:10:16.234Z,6.03
2022-08-24T09:13:10.452Z,6.05
2022-08-24T09:15:57.539Z,4.57
2022-08-24T09:19:02.704Z,5.28
2022-08-24T09:21:44.812Z,6.63
2022-08-24T09:24:42.640Z,6.45
2022-08-24T09:27:15.660Z,4.93
2022-08-24T09:29:49.221Z,5.60
2022-08-24T09:32:28.736Z,5.68
2022-08-24T09:34:59.836Z,4.57
2022-08-24T09:37:34.637Z,5.85
2022-08-24T09:43:08.867Z,5.10
2022-08-24T09:45:54.284Z,4.25
2022-08-24T09:48:59.905Z,9.05
2022-08-24T09:52:00.613Z,5.72
2022-08-24T09:54:39.477Z,4.53
2022-08-24T09:57:50.451Z,4.97
2022-08-24T10:00:30.849Z,4.45
2022-08-24T10:03:09.428Z,4.88
2022-08-24T10:05:51.410Z,5.63
2022-08-24T10:08:39.946Z,4.47
2022-08-24T10:11:27.510Z,5.80
2022-08-24T10:14:16.949Z,4.70
2022-08-24T10:17:05.531Z,5.30
2022-08-24T10:19:50.674Z,4.78
2022-08-24T10:22:47.768Z,5.40
2022-08-24T10:25:36.254Z,4.70
2022-08-24T10:28:21.372Z,4.10
2022-08-24T10:31:12.061Z,2.80
2022-08-24T10:34:18.505Z,2.97
2022-08-24T10:37:03.741Z,3.50
2022-08-24T10:39:49.281Z,3.10
2022-08-24T10:42:43.664Z,3.45
2022-08-24T10:45:29.157Z,2.75
2022-08-24T10:48:05.149Z,2.90
2022-08-24T10:50:56.384Z,2.22
2022-08-24T10:53:25.448Z,2.28
2022-08-24T10:56:16.229Z,2.53
2022-08-24T10:58:52.273Z,2.60
2022-08-24T11:01:33.867Z,1.98
2022-08-24T11:04:03.424Z,1.95
2022-08-24T11:06:39.560Z,2.25
2022-08-24T11:09:19.688Z,1.85
2022-08-24T11:11:49.764Z,2.70
2022-08-24T11:14:16.528Z,2.40
2022-08-24T11:16:45.968Z,2.53
2022-08-24T11:19:29.138Z,2.70
2022-08-24T11:24:26.774Z,2.30
2022-08-24T11:27:06.786Z,2.20
2022-08-24T11:29:59.082Z,2.60
2022-08-24T11:32:40.469Z,2.22
2022-08-24T11:35:23.122Z,1.85
2022-08-24T11:37:52.437Z,1.92
2022-08-24T11:40:22.355Z,2.15
2022-08-24T11:43:14.504Z,2.35
2022-08-24T11:48:38.188Z,2.15
2022-08-24T11:51:29.755Z,2.30
2022-08-24T11:54:31.361Z,1.73
2022-08-24T11:57:08.802Z,1.67
2022-08-24T11:59:38.433Z,2.53
2022-08-24T12:02:22.593Z,2.08
2022-08-24T12:05:10.476Z,2.30
2022-08-24T12:08:16.926Z,2.20
2022-08-24T12:10:58.699Z,2.45
2022-08-24T12:13:52.817Z,2.10
2022-08-24T12:16:31.707Z,2.35
2022-08-24T12:19:09.508Z,2.08
2022-08-24T12:21:39.786Z,2.10
2022-08-24T12:24:08.961Z,2.40
2022-08-24T12:26:51.596Z,2.25
2022-08-24T12:29:26.948Z,2.10
2022-08-24T12:32:06.705Z,1.92
2022-08-24T12:34:50.544Z,2.25
2022-08-24T12:37:28.708Z,2.50
2022-08-24T12:40:12.977Z,2.33
2022-08-24T12:42:56.133Z,3.13
2022-08-24T12:45:25.282Z,2.28
2022-08-24T12:48:09.953Z,2.58
2022-08-24T12:51:15.881Z,1.85
2022-08-24T12:53:51.339Z,2.28
2022-08-24T12:56:23.877Z,2.38
2022-08-24T12:59:00.938Z,2.03
2022-08-24T13:01:33.795Z,3.05
2022-08-24T13:04:06.914Z,2.72
2022-08-24T13:06:41.782Z,2.40
2022-08-24T13:09:15.360Z,2.45
2022-08-24T13:11:43.064Z,2.23
2022-08-24T13:14:20.693Z,2.03
2022-08-24T13:16:59.444Z,2.05
2022-08-24T13:19:45.813Z,1.60
2022-08-24T13:22:12.864Z,1.85
2022-08-24T13:24:39.645Z,2.47
2022-08-24T13:27:12.277Z,1.52
2022-08-24T13:29:53.945Z,1.65
2022-08-24T13:32:42.515Z,1.83
2022-08-24T13:35:30.970Z,2.40
2022-08-24T13:38:25.778Z,2.25
2022-08-24T13:41:02.580Z,2.03
2022-08-24T13:43:32.442Z,2.50
2022-08-24T13:46:32.259Z,2.70
2022-08-24T13:49:12.245Z,3.10
2022-08-24T13:51:47.599Z,2.53
2022-08-24T13:54:44.306Z,2.55
2022-08-24T13:57:33.741Z,2.45
2022-08-24T14:00:33.195Z,2.72
2022-08-24T14:03:24.545Z,2.50
2022-08-24T14:05:51.597Z,2.50
2022-08-24T14:08:49.194Z,2.50
2022-08-24T14:11:58.328Z,1.90
2022-08-24T14:15:02.780Z,2.00
2022-08-24T14:18:03.744Z,2.10
2022-08-24T14:20:33.714Z,2.40
2022-08-24T14:23:19.318Z,2.22
2022-08-24T14:25:49.078Z,2.00
2022-08-24T14:28:38.953Z,1.98
2022-08-24T14:31:17.955Z,2.15
2022-08-24T14:33:55.943Z,1.70
2022-08-24T14:36:43.949Z,1.52
2022-08-24T14:39:25.903Z,1.33
2022-08-24T14:41:58.412Z,1.90
2022-08-24T14:44:56.527Z,2.28
2022-08-24T14:47:54.061Z,2.20
2022-08-24T14:50:32.154Z,1.73
2022-08-24T14:53:26.914Z,2.25
2022-08-24T14:56:05.605Z,2.15
2022-08-24T14:58:57.349Z,2.30
2022-08-24T15:01:33.060Z,2.40
2022-08-24T15:04:41.903Z,2.50
2022-08-24T15:07:21.221Z,2.40
2022-08-24T15:09:48.321Z,2.58
2022-08-24T15:12:39.828Z,2.47
2022-08-24T15:15:34.541Z,2.80
2022-08-24T15:18:25.652Z,2.35
2022-08-24T15:21:32.609Z,2.40
2022-08-24T15:24:09.711Z,2.45
2022-08-24T15:26:58.645Z,2.38
2022-08-24T15:29:30.466Z,2.80
2022-08-24T15:32:11.448Z,4.03
2022-08-24T15:34:49.759Z,2.47
2022-08-24T15:37:31.572Z,2.38
2022-08-24T15:39:59.142Z,2.33
2022-08-24T15:42:29.364Z,2.85
2022-08-24T15:45:01.062Z,2.40
2022-08-24T15:47:34.366Z,2.53
2022-08-24T15:50:07.520Z,2.30
2022-08-24T15:52:47.612Z,2.80
2022-08-24T15:55:42.198Z,2.50
2022-08-24T15:58:29.848Z,2.85
2022-08-24T16:01:40.882Z,2.10
2022-08-24T16:04:14.804Z,2.53
2022-08-24T16:06:47.113Z,2.55
2022-08-24T16:09:22.994Z,2.60
2022-08-24T16:11:49.773Z,2.45
2022-08-24T16:14:50.772Z,2.65
2022-08-24T16:17:23.190Z,2.22
2022-08-24T16:19:53.482Z,2.45
2022-08-24T16:22:32.286Z,2.30
2022-08-24T16:25:17.425Z,2.65
2022-08-24T16:28:12.663Z,2.47
2022-08-24T16:30:50.376Z,2.70
2022-08-24T16:33:43.320Z,3.60
2022-08-24T16:36:18.096Z,3.28
2022-08-24T16:38:50.317Z,3.70
2022-08-24T16:41:24.302Z,5.15
2022-08-24T16:43:51.699Z,4.35
2022-08-24T16:46:23.663Z,4.10
2022-08-24T16:48:53.979Z,3.63
2022-08-24T16:51:24.335Z,2.85
2022-08-24T16:53:51.214Z,2.78
2022-08-24T16:56:18.016Z,2.70
2022-08-24T16:58:47.429Z,2.63
2022-08-24T17:01:15.175Z,2.83
2022-08-24T17:03:42.638Z,2.80
2022-08-24T17:06:12.411Z,2.70
2022-08-24T17:08:40.119Z,2.50
2022-08-24T17:11:07.025Z,2.60
2022-08-24T17:13:48.846Z,2.67
2022-08-24T17:16:18.060Z,2.90
2022-08-24T17:18:44.969Z,2.80
2022-08-24T17:21:11.745Z,2.97
2022-08-24T17:23:40.713Z,2.53
2022-08-24T17:26:19.240Z,2.55
2022-08-24T17:28:49.905Z,2.95
2022-08-24T17:31:17.244Z,3.35
2022-08-24T17:33:44.250Z,3.28
2022-08-24T17:36:13.188Z,2.97
2022-08-24T17:38:46.056Z,3.15
2022-08-24T17:41:14.706Z,3.60
2022-08-24T17:43:45.920Z,3.00
2022-08-24T17:46:14.912Z,3.22
2022-08-24T17:48:46.020Z,4.28
2022-08-24T17:51:13.537Z,3.88
2022-08-24T17:53:40.749Z,3.97
2022-08-24T17:56:08.684Z,3.75
2022-08-24T17:58:59.107Z,3.45
2022-08-24T18:01:26.906Z,3.28
2022-08-24T18:03:53.767Z,2.90
2022-08-24T18:06:26.255Z,3.13
2022-08-24T18:08:56.579Z,3.38
2022-08-24T18:11:25.969Z,3.72
2022-08-24T18:13:54.326Z,3.65
2022-08-24T18:16:23.765Z,3.60
2022-08-24T18:18:51.920Z,3.10
2022-08-24T18:21:20.136Z,3.80
2022-08-24T18:23:48.567Z,3.28
2022-08-24T18:26:28.284Z,3.40
2022-08-24T18:28:57.669Z,3.30
2022-08-24T18:31:27.233Z,3.45
2022-08-24T18:33:54.624Z,3.55
2022-08-24T18:36:21.669Z,3.25
2022-08-24T18:38:48.474Z,3.33
2022-08-24T18:41:15.935Z,3.40
2022-08-24T18:43:42.757Z,2.67
2022-08-24T18:46:09.675Z,3.08
2022-08-24T18:48:36.532Z,3.72
2022-08-24T18:51:04.286Z,3.50
2022-08-24T18:53:31.294Z,3.60
2022-08-24T18:56:00.620Z,3.90
2022-08-24T18:58:32.215Z,3.35
2022-08-24T19:00:59.268Z,4.35
2022-08-24T19:03:26.820Z,4.00
2022-08-24T19:05:53.836Z,3.38
2022-08-24T19:08:21.111Z,3.47
2022-08-24T19:10:47.881Z,3.30
2022-08-24T19:13:16.074Z,3.70
2022-08-24T19:15:46.601Z,3.40
2022-08-24T19:18:18.832Z,3.38
2022-08-24T19:20:49.409Z,3.30
2022-08-24T19:23:28.089Z,3.08
2022-08-24T19:25:56.086Z,3.83
2022-08-24T19:28:24.530Z,4.07
2022-08-24T19:30:58.063Z,3.47
2022-08-24T19:33:29.265Z,3.53
2022-08-24T19:35:57.505Z,3.38
2022-08-24T19:38:26.051Z,3.70
2022-08-24T19:40:55.326Z,3.17
2022-08-24T19:43:23.723Z,3.63
2022-08-24T19:46:03.296Z,3.83
2022-08-24T19:48:35.876Z,3.50
2022-08-24T19:51:05.565Z,3.13
2022-08-24T19:53:35.149Z,3.50
2022-08-24T19:56:05.245Z,3.67
2022-08-24T19:58:50.172Z,3.38
2022-08-24T20:01:28.481Z,3.45
2022-08-24T20:03:55.496Z,4.03
2022-08-24T20:06:23.995Z,4.20
2022-08-24T20:08:52.056Z,3.63
2022-08-24T20:11:19.796Z,3.45
2022-08-24T20:13:47.437Z,3.33
2022-08-24T20:16:19.447Z,3.53
2022-08-24T20:18:47.140Z,4.45
2022-08-24T20:21:14.866Z,4.20
2022-08-24T20:23:42.914Z,4.32
2022-08-24T20:26:11.402Z,4.13
2022-08-24T20:28:50.408Z,4.00
2022-08-24T20:31:19.006Z,3.60
2022-08-24T20:33:46.027Z,3.45
2022-08-24T20:36:23.208Z,3.58
2022-08-24T20:38:50.092Z,3.33
2022-08-24T20:41:16.996Z,3.65
2022-08-24T20:43:45.047Z,3.78
2022-08-24T20:46:12.183Z,3.92
2022-08-24T20:48:41.997Z,3.70
2022-08-24T20:51:09.901Z,4.18
2022-08-24T20:53:37.749Z,4.43
2022-08-24T20:56:10.189Z,3.72
2022-08-24T20:58:39.117Z,4.25
2022-08-24T21:01:07.840Z,4.18
2022-08-24T21:03:34.844Z,5.15
2022-08-24T21:06:02.589Z,5.40
2022-08-24T21:08:29.786Z,4.82
2022-08-24T21:10:56.669Z,4.35
2022-08-24T21:13:23.448Z,4.40
2022-08-24T21:15:52.434Z,5.28
2022-08-24T21:18:19.886Z,4.72
2022-08-24T21:20:55.741Z,5.10
2022-08-24T21:23:31.468Z,4.85
2022-08-24T21:25:59.558Z,5.20
2022-08-24T21:28:26.501Z,4.75
2022-08-24T21:30:53.330Z,4.93
2022-08-24T21:33:38.734Z,5.05
2022-08-24T21:36:05.853Z,4.95
2022-08-24T21:38:34.484Z,5.03
2022-08-24T21:41:02.970Z,4.53
2022-08-24T21:43:32.053Z,4.50
2022-08-24T21:46:00.451Z,4.25
2022-08-24T21:48:27.508Z,4.65
2022-08-24T21:50:54.401Z,4.72
2022-08-24T21:53:21.156Z,4.70
2022-08-24T21:55:49.231Z,4.55
2022-08-24T21:58:15.985Z,4.25
2022-08-24T22:00:42.797Z,3.72
2022-08-24T22:03:10.118Z,4.63
2022-08-24T22:05:37.344Z,4.03
2022-08-24T22:08:04.729Z,4.63
2022-08-24T22:10:31.775Z,4.15
2022-08-24T22:13:03.304Z,3.97
2022-08-24T22:15:33.771Z,3.85
2022-08-24T22:18:01.229Z,4.25
2022-08-24T22:20:28.296Z,3.53
2022-08-24T22:22:55.375Z,3.75
2022-08-24T22:25:22.220Z,4.15
2022-08-24T22:27:49.021Z,3.95
2022-08-24T22:30:17.970Z,4.07
2022-08-24T22:32:46.285Z,4.10
2022-08-24T22:35:14.208Z,4.20
2022-08-24T22:37:41.744Z,3.70
2022-08-24T22:40:12.349Z,3.65
2022-08-24T22:42:40.075Z,4.15
2022-08-24T22:45:07.719Z,3.92
2022-08-24T22:47:34.621Z,3.47
2022-08-24T22:50:02.718Z,3.38
2022-08-24T22:52:29.627Z,3.78
2022-08-24T22:54:57.692Z,3.63
2022-08-24T22:57:25.109Z,3.47
2022-08-24T22:59:53.635Z,3.97
2022-08-24T23:02:20.851Z,4.07
2022-08-24T23:04:51.053Z,3.75
2022-08-24T23:07:18.711Z,3.10
2022-08-24T23:09:46.619Z,3.33
2022-08-24T23:12:20.304Z,3.58
2022-08-24T23:14:48.221Z,3.60
2022-08-24T23:17:15.023Z,3.58
2022-08-24T23:20:00.520Z,3.65
2022-08-24T23:22:31.185Z,3.75
2022-08-24T23:24:59.285Z,3.30
2022-08-24T23:27:36.413Z,3.75
2022-08-24T23:30:09.485Z,3.28
2022-08-24T23:32:36.445Z,3.22
2022-08-24T23:35:04.586Z,3.45
2022-08-24T23:37:31.726Z,3.85
2022-08-24T23:39:58.957Z,3.35
2022-08-24T23:42:25.807Z,3.45
2022-08-24T23:44:53.385Z,3.13
2022-08-24T23:47:21.059Z,3.80
2022-08-24T23:49:47.997Z,3.38
2022-08-24T23:52:28.546Z,3.00
2022-08-24T23:55:20.142Z,3.28
2022-08-24T23:57:47.527Z,3.85
